Jakobshavn, Greenland
Current Conditions -  °F | °C
As of 2:50 AM on Thursday 27 Nov 2014 (Local Time) from BGJN Reporting Station
Broken Clouds Broken Clouds  
Wind Chill: -3°   Ceiling: 11000
Heat Index: 14°   Visibility: 6mi
Dew Point: -2°   Wind: 20mph
Humidity: 49%   Direction: 90°E
Pressure: 29.53"   Gusts: NA
Location:  69.21°N, 51.09°W
Report Text: BGJN 270450Z AUTO 09017KT 9999NDV SCT095/// BKN110/// M10/M19 Q1000
Loading
Personal Weather Stations






























Interactive Weather Map New forecast layout! Learn more

10-Day Weather Forecast

Advertisements
Track Severe Weather on mobile